Webkamera Lisätietoa Webcam


Yksityisiä sääasemia lähellä:

Sääasema Juupajoki

Sääasema Orivesi

Sääasema Muurame

Sääasema Jyväskylä

Sääasema Vihtavuori


Löydät sääaseman tiedot myös:

Finland Weather Exchange

European Weather Network

Weather Underground

AWEKAS

Windy.com

HAMweather, WeatherForYou, PWS Weather



Säätiedot lähimmiltä METAR asemilta

   
EFHA - Halli (Fin-Afb), Finland
Etäisyys asemalta: Kaakko 25 km
Päivitetty: 27.05.2022 03:20
Utua, Melkein pilvistä  
Utua, Melkein pilvistä  
   Tuuli: Pohjoisluode 1 m/s
Tuuli: Pohjoisluode 1 m/s
Lämpötila: 8°C
Kastepiste: 8°C
Kosteus: 100%
Ilmanpaine: 997 hPa
Pilvisyys: Melkein pilvistä
Näkyvyys: 4 km
Pilvitiedot: Melkein pilvistä 914 m,
Melkein pilvistä 1219 m
EFHA 270020Z AUTO 34002KT 3500 BR BKN030 BKN040 08/08 Q0997
EFJY - Jyvaskyla (Mil/Civ), Finland
Etäisyys asemalta: Koillinen 75 km
Päivitetty: 27.05.2022 03:20
Vähäistä pilvisyyttä  
Vähäistä pilvisyyttä  
   Tuuli: Luode 2.1 m/s
Tuuli: Luode 2.1 m/s
Lämpötila: 6°C
Tuulen hyytävyys: 4°C
Kastepiste: 4°C
Kosteus: 87%
Ilmanpaine: 997 hPa
Pilvisyys: Vähäistä pilvisyyttä
Näkyvyys: Enemmän kuin 10 km
Pilvitiedot: Vähäistä pilvisyyttä 640 m
EFJY 270020Z AUTO 31004KT 9999 FEW021 06/04 Q0997
EFTP - Tampere/Pirkkala, Finland
Etäisyys asemalta: Lounas 81 km
Päivitetty: 27.05.2022 03:20
Heikkoja sadekuuroja, Sade, Pilvistä  
Heikkoja sadekuuroja, Sade, Pilvistä  
   Tuuli: Itä 1.5 m/s
Tuuli: Itä 1.5 m/s
Lämpötila: 8°C
Tuulen hyytävyys: 7°C
Kastepiste: 8°C
Kosteus: 100%
Ilmanpaine: 997 hPa
Pilvisyys: Pilvistä
Näkyvyys: Enemmän kuin 10 km
Pilvitiedot: Pilvistä 1128 m,
Ukkosta
EFTP 270020Z AUTO 09003KT 9999 -SHRA OVC037 //////CB 08/08 Q0997
EFSI - Seinajoki-Ilmajoki, Finland
Etäisyys asemalta: Luode 114 km
Päivitetty: 27.05.2022 03:20
Selkeää  
Selkeää  
   Tuuli: Itäkaakko 1.5 m/s
Tuuli: Itäkaakko 1.5 m/s
Lämpötila: 8°C
Tuulen hyytävyys: 7°C
Kastepiste: 8°C
Kosteus: 100%
Ilmanpaine: 998 hPa
Näkyvyys: Enemmän kuin 10 km
Pilvitiedot: Selkeää
EFSI 270020Z AUTO 12003KT CAVOK 08/08 Q0998
EFMI - Mikkeli, Finland
Etäisyys asemalta: Itäkaakko 147 km
Päivitetty: 27.05.2022 03:20
Selkeää  
Selkeää  
   Tuuli: Vaihtelee 1 m/s
Tuuli: Vaihtelee 1 m/s
Lämpötila: 9°C
Kastepiste: 8°C
Kosteus: 94%
Ilmanpaine: 996 hPa
Näkyvyys: Enemmän kuin 10 km
Pilvitiedot: Selkeää
EFMI 270020Z AUTO VRB02KT CAVOK 09/08 Q0996
EFPO - Pori (Mil/Civ), Finland
Etäisyys asemalta: Länsilounas 154 km
Päivitetty: 27.05.2022 03:20
Selkeää  
Selkeää  
   Tuuli: Vaihtelee 1 m/s
Tuuli: Vaihtelee 1 m/s
Lämpötila: 8°C
Kastepiste: 7°C
Kosteus: 93%
Ilmanpaine: 997 hPa
Näkyvyys: Enemmän kuin 10 km
Pilvitiedot: Selkeää
EFPO 270020Z AUTO VRB02KT CAVOK 08/07 Q0997
EFUT - Utti (Fin-Afb), Finland
Etäisyys asemalta: Kaakko 180 km
Päivitetty: 27.05.2022 03:20
Heikkoja sadekuuroja, Sade, Pilvistä  
Heikkoja sadekuuroja, Sade, Pilvistä  
   Tuuli: Pohjoisluode 2.1 m/s
Tuuli: Pohjoisluode 2.1 m/s
Lämpötila: 9°C
Tuulen hyytävyys: 8°C
Kastepiste: 8°C
Kosteus: 94%
Ilmanpaine: 996 hPa
Pilvisyys: Pilvistä
Näkyvyys: Enemmän kuin 10 km
Pilvitiedot: Vähäistä pilvisyyttä 122 m,
Pilvistä 1036 m
EFUT 270020Z AUTO 34004KT 9999 -SHRA FEW004 OVC034 09/08 Q0996
EFVA - Vaasa, Finland
Etäisyys asemalta: Luode 180 km
Päivitetty: 27.05.2022 03:20
Melkein pilvistä  
Melkein pilvistä  
   Tuuli: Itäkoillinen 1.5 m/s
Tuuli: Itäkoillinen 1.5 m/s
Lämpötila: 9°C
Tuulen hyytävyys: 8°C
Kastepiste: 9°C
Kosteus: 100%
Ilmanpaine: 998 hPa
Pilvisyys: Melkein pilvistä
Näkyvyys: Enemmän kuin 10 km
Pilvitiedot: Puolipilvistä 274 m,
Melkein pilvistä 549 m
EFVA 270020Z AUTO 06003KT 9999 SCT009 BKN018 09/09 Q0998
EFHK - Helsinki/Vantaa, Finland
Etäisyys asemalta: Etelä 191 km
Päivitetty: 27.05.2022 03:20
Heikkoa sadetta, Melkein pilvistä  
Heikkoa sadetta, Melkein pilvistä  
   Tuuli: Tyyntä
Tuuli: Tyyntä
Lämpötila: 8°C
Kastepiste: 8°C
Kosteus: 100%
Ilmanpaine: 997 hPa
Pilvisyys: Melkein pilvistä
Näkyvyys: 7 km
Pilvitiedot: Puolipilvistä 122 m,
Melkein pilvistä 213 m
EFHK 270020Z 00000KT 7000 -RA SCT004 BKN007 08/08 Q0997 NOSIG

Alkuperäinen skripti  Saratoga-weather.org Sovitettu myös templatelle  Weerstation Leuven

Laitteet joita käytämme:

Sääasema
Davis VP2

Sääasemaohjelma
Cumulus

Sääaseman palvelin
HP ProBook 6460b

Palveluntarjoaja
Radicenter

Davis VP2

Cumulus

HP ProBook 6460b

Radicenter




Flag Counter Cumulus Top Weather Sites